Time;durP1;ratioP1;P1;durP2;ratioP2;P2;SDS_P1;SDS_P2;PMS_P1;PMS_P2;Temp;Humidity;BMP_temperature;BMP_pressure;BME280_temperature;BME280_humidity;BME280_pressure;Samples;Min_cycle;Max_cycle;Signal;HPM_P1;HPM_P2
2021/12/12 00:01:23;;;;;;;27.30;13.60;;;3.60;85.60;;;;;;5035018;28;20409;-76
2021/12/12 00:04:10;;;;;;;25.50;14.13;;;3.60;83.40;;;;;;5051954;28;20401;-75
2021/12/12 00:06:38;;;;;;;31.08;13.93;;;3.50;84.40;;;;;;5034111;28;20393;-76
2021/12/12 00:09:16;;;;;;;22.33;13.30;;;3.60;84.40;;;;;;5051208;28;20392;-76
2021/12/12 00:11:47;;;;;;;38.33;12.88;;;3.70;83.50;;;;;;5031832;28;20402;-77
2021/12/12 00:14:37;;;;;;;;;;;;;;;;;;;;;
2021/12/12 00:17:11;;;;;;;28.10;12.25;;;3.80;81.10;;;;;;5030025;28;20402;-77
2021/12/12 00:19:37;;;;;;;27.17;12.90;;;3.90;80.80;;;;;;5034289;28;20387;-77
2021/12/12 00:22:27;;;;;;;27.15;12.90;;;3.90;80.30;;;;;;5033167;28;20407;-76
2021/12/12 00:24:59;;;;;;;24.70;12.82;;;3.70;79.80;;;;;;5013106;28;21067;-77
2021/12/12 00:27:42;;;;;;;25.88;12.20;;;3.80;80.40;;;;;;5017988;28;20408;-76
2021/12/12 00:30:12;;;;;;;25.85;11.90;;;3.80;81.50;;;;;;5020399;28;20516;-78
2021/12/12 00:32:39;;;;;;;27.58;13.45;;;3.90;78.20;;;;;;5036683;28;20403;-74
2021/12/12 00:35:09;;;;;;;22.83;12.52;;;3.90;77.00;;;;;;5032926;28;20398;-74
2021/12/12 00:37:36;;;;;;;25.25;12.05;;;3.70;79.40;;;;;;5037308;28;20387;-76
2021/12/12 00:40:32;;;;;;;25.50;12.13;;;3.70;79.70;;;;;;5036692;28;20871;-74
2021/12/12 00:43:01;;;;;;;21.60;11.50;;;3.90;76.70;;;;;;5035694;28;20403;-76
2021/12/12 00:45:28;;;;;;;26.30;13.57;;;3.90;77.50;;;;;;5035772;28;20386;-73
2021/12/12 00:47:55;;;;;;;28.08;12.48;;;3.80;77.30;;;;;;5033706;28;20414;-73
2021/12/12 00:50:33;;;;;;;24.17;12.60;;;3.80;77.70;;;;;;5051705;28;20468;-74
2021/12/12 00:53:01;;;;;;;25.60;12.70;;;3.90;77.00;;;;;;5013421;28;20430;-75
2021/12/12 00:55:28;;;;;;;32.57;12.47;;;4.00;75.30;;;;;;5023772;28;20401;-74
2021/12/12 00:57:54;;;;;;;24.73;12.13;;;3.90;75.10;;;;;;5019450;28;20385;-75
2021/12/12 01:00:28;;;;;;;25.40;11.40;;;4.00;74.50;;;;;;5013399;28;20428;-74
2021/12/12 01:02:55;;;;;;;25.70;11.35;;;4.00;74.70;;;;;;5012932;28;20391;-75
2021/12/12 01:05:22;;;;;;;24.63;11.40;;;4.00;74.00;;;;;;5015016;28;20391;-74
2021/12/12 01:07:49;;;;;;;21.40;10.80;;;4.00;73.10;;;;;;5032093;28;20396;-75
2021/12/12 01:10:32;;;;;;;24.40;10.93;;;4.00;74.00;;;;;;5024092;28;20403;-75
2021/12/12 01:12:59;;;;;;;21.40;10.10;;;4.10;72.20;;;;;;5014698;28;20386;-74
2021/12/12 01:15:33;;;;;;;19.63;10.90;;;4.00;73.10;;;;;;5031390;28;20411;-74
2021/12/12 01:18:10;;;;;;;26.00;10.45;;;4.00;73.40;;;;;;5036915;28;20390;-74
2021/12/12 01:20:44;;;;;;;23.75;10.05;;;4.00;73.60;;;;;;5032163;28;20478;-74
2021/12/12 01:23:22;;;;;;;17.48;9.73;;;4.10;72.10;;;;;;5025574;28;20404;-74
2021/12/12 01:25:50;;;;;;;22.73;10.30;;;4.10;72.60;;;;;;5031554;28;20485;-74
2021/12/12 01:28:20;;;;;;;20.90;10.13;;;4.20;71.10;;;;;;5031958;28;20395;-75
2021/12/12 01:30:47;;;;;;;19.53;9.53;;;4.20;70.00;;;;;;5032119;28;20443;-74
2021/12/12 01:33:21;;;;;;;29.05;9.82;;;4.00;72.20;;;;;;5031810;28;20379;-74
2021/12/12 01:35:47;;;;;;;20.00;10.70;;;4.00;73.30;;;;;;5031960;28;20410;-76
2021/12/12 01:40:58;;;;;;;16.70;8.90;;;4.00;74.60;;;;;;5021042;28;20515;-75
2021/12/12 01:43:34;;;;;;;23.97;9.50;;;4.10;71.80;;;;;;5012544;28;20476;-75
2021/12/12 01:46:06;;;;;;;25.20;10.70;;;4.00;72.50;;;;;;5016896;28;20390;-77
2021/12/12 01:48:39;;;;;;;15.57;9.63;;;4.10;71.50;;;;;;5030994;28;20434;-74
2021/12/12 01:51:08;;;;;;;19.83;9.60;;;4.00;72.60;;;;;;5032104;28;20969;-75
2021/12/12 01:53:37;;;;;;;21.70;9.83;;;4.00;72.80;;;;;;5031478;28;20383;-75
2021/12/12 01:56:08;;;;;;;20.53;8.90;;;4.00;73.10;;;;;;5031517;28;20391;-76
2021/12/12 01:58:37;;;;;;;17.63;9.00;;;4.00;73.30;;;;;;5032838;28;20893;-76
2021/12/12 02:01:12;;;;;;;20.80;9.20;;;4.10;73.70;;;;;;5032409;28;20410;-76
2021/12/12 02:03:45;;;;;;;18.10;8.65;;;4.00;73.40;;;;;;5034273;28;20402;-75
2021/12/12 02:06:13;;;;;;;15.30;7.93;;;4.10;73.40;;;;;;5034347;28;20944;-75
2021/12/12 02:08:40;;;;;;;18.42;8.85;;;4.10;73.20;;;;;;5033491;28;20803;-76
2021/12/12 02:11:15;;;;;;;22.27;9.30;;;4.10;72.20;;;;;;5033887;28;20403;-77
2021/12/12 02:13:46;;;;;;;17.27;8.35;;;4.20;70.60;;;;;;5028285;28;20424;-75
2021/12/12 02:16:13;;;;;;;17.75;8.07;;;4.20;70.60;;;;;;5036205;28;20409;-75
2021/12/12 02:18:49;;;;;;;16.30;8.10;;;4.30;68.80;;;;;;5034822;28;20432;-75
2021/12/12 02:21:27;;;;;;;17.98;8.60;;;4.30;69.90;;;;;;5035011;28;20478;-75
2021/12/12 02:35:11;;;;;;;15.35;7.07;;;4.40;68.70;;;;;;5034802;28;20398;-75
2021/12/12 02:37:37;;;;;;;14.65;6.95;;;4.40;67.20;;;;;;5034367;28;20399;-74
2021/12/12 02:40:07;;;;;;;14.75;7.03;;;4.50;65.80;;;;;;5020376;28;20396;-75
2021/12/12 02:42:32;;;;;;;18.92;8.00;;;4.50;67.20;;;;;;5014509;28;20423;-74
2021/12/12 02:45:00;;;;;;;17.23;7.78;;;4.60;66.50;;;;;;5030143;28;20795;-74
2021/12/12 02:47:34;;;;;;;17.30;7.13;;;4.60;64.90;;;;;;5034697;28;20403;-74
2021/12/12 02:50:13;;;;;;;15.83;6.93;;;4.50;67.60;;;;;;5015643;28;20916;-75
2021/12/12 02:52:42;;;;;;;19.02;7.70;;;4.50;65.00;;;;;;5026344;28;20471;-74
2021/12/12 02:55:24;;;;;;;17.63;7.20;;;4.60;65.20;;;;;;5033521;28;20394;-75
2021/12/12 02:57:52;;;;;;;13.48;6.85;;;4.80;63.70;;;;;;5029296;28;20407;-74
2021/12/12 03:00:23;;;;;;;18.13;7.38;;;4.90;62.30;;;;;;5032994;28;20422;-74
2021/12/12 03:02:56;;;;;;;15.95;7.32;;;4.90;62.50;;;;;;5025446;28;20465;-74
2021/12/12 03:05:23;;;;;;;16.03;6.70;;;4.80;62.50;;;;;;5033169;28;20414;-73
2021/12/12 03:07:49;;;;;;;17.33;8.20;;;4.70;64.90;;;;;;5033323;28;20891;-73
2021/12/12 03:10:20;;;;;;;19.35;7.15;;;4.80;63.00;;;;;;5031698;28;20411;-75
2021/12/12 03:12:46;;;;;;;12.65;6.97;;;4.80;62.10;;;;;;5032008;28;20486;-74
2021/12/12 03:15:21;;;;;;;17.77;7.63;;;4.80;62.50;;;;;;5031286;28;20454;-75
2021/12/12 03:17:48;;;;;;;16.55;7.20;;;4.80;62.30;;;;;;5013966;28;20744;-75
2021/12/12 03:20:27;;;;;;;19.38;7.32;;;4.70;63.30;;;;;;5013595;28;20392;-75
2021/12/12 03:23:00;;;;;;;18.05;7.50;;;4.80;63.00;;;;;;4999874;28;20449;-74
2021/12/12 03:25:27;;;;;;;22.00;7.32;;;4.60;64.70;;;;;;5034126;28;20414;-73
2021/12/12 03:27:53;;;;;;;13.27;7.28;;;4.60;64.70;;;;;;5021543;28;20483;-74
2021/12/12 03:30:19;;;;;;;15.90;6.68;;;4.70;63.50;;;;;;5021153;28;20496;-74
2021/12/12 03:32:46;;;;;;;15.23;6.43;;;4.80;63.10;;;;;;5029085;28;20417;-76
2021/12/12 03:35:12;;;;;;;12.47;6.70;;;4.80;63.10;;;;;;5018554;28;20435;-75
2021/12/12 03:37:39;;;;;;;16.30;7.28;;;4.80;62.10;;;;;;5028938;28;20446;-75
2021/12/12 03:40:17;;;;;;;14.13;6.80;;;4.90;61.90;;;;;;5025127;28;20403;-74
2021/12/12 03:42:47;;;;;;;17.85;6.40;;;4.90;62.90;;;;;;5032367;28;20391;-75
2021/12/12 03:45:13;;;;;;;11.70;6.20;;;4.80;63.40;;;;;;5040408;28;20736;-76
2021/12/12 03:47:47;;;;;;;16.27;7.20;;;4.80;64.30;;;;;;5032593;28;20938;-76
2021/12/12 03:50:19;;;;;;;13.38;6.35;;;4.80;64.30;;;;;;5023425;28;20423;-74
2021/12/12 03:52:45;;;;;;;14.13;6.90;;;4.80;66.70;;;;;;5033998;28;20389;-73
2021/12/12 03:55:11;;;;;;;16.77;6.85;;;4.80;67.00;;;;;;5033927;28;20410;-74
2021/12/12 03:57:38;;;;;;;15.05;6.45;;;4.80;68.60;;;;;;5024761;28;20388;-74
2021/12/12 04:00:08;;;;;;;17.45;6.95;;;4.90;68.20;;;;;;5032071;28;20406;-74
2021/12/12 04:02:34;;;;;;;13.27;6.53;;;4.90;70.30;;;;;;5031824;28;20861;-74
2021/12/12 04:04:59;;;;;;;16.33;6.50;;;4.90;69.80;;;;;;5033286;28;20383;-75
2021/12/12 04:07:27;;;;;;;16.87;6.77;;;4.80;71.80;;;;;;5031040;28;20435;-75
2021/12/12 04:09:55;;;;;;;16.92;7.20;;;4.80;72.90;;;;;;5020230;28;20424;-74
2021/12/12 04:12:22;;;;;;;16.77;7.03;;;4.70;74.30;;;;;;4994298;28;20397;-74
2021/12/12 04:14:49;;;;;;;15.13;6.90;;;4.80;75.30;;;;;;5018319;28;20434;-74
2021/12/12 04:17:18;;;;;;;18.88;7.28;;;4.90;73.70;;;;;;5024401;28;20446;-75
2021/12/12 04:19:45;;;;;;;17.60;6.90;;;4.90;73.40;;;;;;5014912;28;20408;-75
2021/12/12 04:22:11;;;;;;;16.45;6.90;;;4.80;73.50;;;;;;5026550;28;20754;-75
2021/12/12 04:24:41;;;;;;;17.90;6.53;;;4.80;74.60;;;;;;5013253;28;20471;-75
2021/12/12 04:27:08;;;;;;;17.50;7.10;;;4.90;74.30;;;;;;5012101;28;20762;-75
2021/12/12 04:29:38;;;;;;;13.82;7.40;;;4.90;75.20;;;;;;4994274;28;20400;-75
2021/12/12 04:32:26;;;;;;;17.70;7.85;;;4.80;75.80;;;;;;5019110;28;20453;-74
2021/12/12 04:34:59;;;;;;;13.88;7.15;;;4.80;77.10;;;;;;5029255;28;20398;-74
2021/12/12 04:37:26;;;;;;;13.18;6.65;;;4.80;75.50;;;;;;5031294;28;20391;-75
2021/12/12 04:39:55;;;;;;;15.30;7.00;;;4.80;77.30;;;;;;5031691;28;20391;-74
2021/12/12 04:42:31;;;;;;;13.50;6.88;;;4.70;78.80;;;;;;5031951;28;20410;-74
2021/12/12 04:45:52;;;;;;;13.88;7.20;;;4.80;79.40;;;;;;5014576;28;21132;-74
2021/12/12 04:51:47;;;;;;;20.25;7.10;;;4.80;80.20;;;;;;5030349;28;20456;-74
2021/12/12 04:54:32;;;;;;;22.73;7.70;;;4.90;79.30;;;;;;5016315;28;20443;-74
2021/12/12 04:57:29;;;;;;;19.13;8.32;;;4.90;80.80;;;;;;5025074;28;20395;-74
2021/12/12 05:00:11;;;;;;;17.90;8.20;;;4.90;81.30;;;;;;5013022;28;20942;-74
2021/12/12 05:03:08;;;;;;;17.00;8.40;;;4.90;84.00;;;;;;5033837;28;20406;-74
2021/12/12 05:05:42;;;;;;;14.60;7.10;;;4.90;85.40;;;;;;5013152;28;20423;-74
2021/12/12 05:08:34;;;;;;;22.92;8.40;;;5.10;81.00;;;;;;5030655;28;20409;-73
2021/12/12 05:11:10;;;;;;;18.98;8.50;;;4.90;86.10;;;;;;5018715;28;20423;-74
2021/12/12 05:13:41;;;;;;;16.15;8.10;;;4.80;89.20;;;;;;5021625;28;20493;-74
2021/12/12 05:16:13;;;;;;;24.88;8.43;;;4.80;88.90;;;;;;5030782;28;20387;-73
2021/12/12 05:18:48;;;;;;;20.70;8.27;;;4.80;89.70;;;;;;5012756;28;20487;-74
2021/12/12 05:21:17;;;;;;;19.63;9.20;;;4.80;93.60;;;;;;5029840;28;20799;-73
2021/12/12 05:23:46;;;;;;;23.10;8.90;;;4.80;94.20;;;;;;5022188;28;20387;-73
2021/12/12 05:26:32;;;;;;;23.50;9.73;;;4.70;99.20;;;;;;5030837;28;20375;-73
2021/12/12 05:29:07;;;;;;;23.58;9.80;;;4.70;99.80;;;;;;5011369;28;20396;-73
2021/12/12 05:31:33;;;;;;;23.33;9.30;;;4.70;99.90;;;;;;5010546;28;20415;-74
2021/12/12 05:34:00;;;;;;;20.63;9.77;;;4.70;99.90;;;;;;5029712;28;20933;-74
2021/12/12 05:36:28;;;;;;;24.80;10.52;;;4.80;99.90;;;;;;5013545;28;20397;-75
2021/12/12 05:38:59;;;;;;;24.67;10.68;;;4.70;99.90;;;;;;5010803;28;20393;-74
2021/12/12 05:41:26;;;;;;;20.40;10.10;;;4.80;99.90;;;;;;5019813;28;20825;-74
2021/12/12 05:43:57;;;;;;;26.48;10.82;;;4.90;99.90;;;;;;5030190;28;20387;-74
2021/12/12 05:46:23;;;;;;;26.15;11.30;;;4.70;99.90;;;;;;5021683;28;20392;-75
2021/12/12 05:48:50;;;;;;;27.50;11.60;;;4.60;99.90;;;;;;5012901;28;20750;-75
2021/12/12 05:51:16;;;;;;;34.58;11.60;;;4.70;99.90;;;;;;5013687;28;20785;-75
2021/12/12 05:53:42;;;;;;;29.33;11.60;;;4.70;99.90;;;;;;5032255;28;20470;-75
2021/12/12 05:56:08;;;;;;;25.25;10.80;;;4.80;99.90;;;;;;5034119;28;20391;-75
2021/12/12 05:58:34;;;;;;;20.75;11.02;;;4.80;99.90;;;;;;5025474;28;20396;-75
2021/12/12 06:01:05;;;;;;;27.77;11.70;;;4.90;99.90;;;;;;5033919;28;20451;-75
2021/12/12 06:03:34;;;;;;;28.55;12.80;;;4.70;99.90;;;;;;5033629;28;20380;-75
2021/12/12 06:06:05;;;;;;;24.50;11.63;;;4.70;99.90;;;;;;5034028;28;20381;-75
2021/12/12 06:08:31;;;;;;;25.00;12.10;;;4.80;99.90;;;;;;5033519;28;20777;-74
2021/12/12 06:10:58;;;;;;;30.97;12.43;;;4.90;99.90;;;;;;5026050;28;20435;-75
2021/12/12 06:13:24;;;;;;;27.42;11.65;;;4.80;99.90;;;;;;5034429;28;20394;-73
2021/12/12 06:15:53;;;;;;;27.33;11.38;;;4.90;99.90;;;;;;5042998;28;20398;-74
2021/12/12 06:18:25;;;;;;;27.80;12.23;;;4.90;99.90;;;;;;5038010;28;20445;-74
2021/12/12 06:20:52;;;;;;;29.73;11.40;;;4.80;99.90;;;;;;5033414;28;20896;-74
2021/12/12 06:23:18;;;;;;;30.67;11.05;;;4.90;99.90;;;;;;5015111;28;20702;-75
2021/12/12 06:25:44;;;;;;;26.90;11.88;;;4.90;99.90;;;;;;5033881;28;20970;-74
2021/12/12 06:28:29;;;;;;;32.22;12.20;;;4.90;99.90;;;;;;5033764;28;20391;-74
2021/12/12 06:30:55;;;;;;;30.95;12.60;;;5.00;99.90;;;;;;5033525;28;20399;-74
2021/12/12 06:33:22;;;;;;;35.67;13.00;;;5.00;99.90;;;;;;5033407;28;20382;-74
2021/12/12 06:35:48;;;;;;;25.70;12.70;;;4.90;99.90;;;;;;5033007;28;20468;-74
2021/12/12 06:38:16;;;;;;;23.52;11.85;;;5.10;99.90;;;;;;5026204;28;20425;-74
2021/12/12 06:40:42;;;;;;;28.92;12.90;;;5.00;99.90;;;;;;5013612;28;20866;-74
2021/12/12 06:43:11;;;;;;;31.55;13.20;;;4.90;99.90;;;;;;5013208;28;21134;-74
2021/12/12 06:45:37;;;;;;;27.35;13.95;;;4.90;99.90;;;;;;5016153;28;20445;-75
2021/12/12 06:48:06;;;;;;;28.20;12.50;;;4.80;99.90;;;;;;5033199;28;20419;-75
2021/12/12 06:50:33;;;;;;;23.93;12.80;;;5.10;99.90;;;;;;5032504;28;20491;-74
2021/12/12 06:52:59;;;;;;;26.65;13.10;;;5.10;99.90;;;;;;5013781;28;20781;-75
2021/12/12 06:55:25;;;;;;;28.20;11.73;;;5.10;99.90;;;;;;5013419;28;20448;-74
2021/12/12 06:57:51;;;;;;;27.38;12.35;;;5.10;99.90;;;;;;5025081;28;20387;-75
2021/12/12 07:00:21;;;;;;;23.90;11.48;;;5.10;99.90;;;;;;5033342;28;20414;-75
2021/12/12 07:02:47;;;;;;;22.52;12.27;;;5.30;99.90;;;;;;5031882;28;20881;-75
2021/12/12 07:05:20;;;;;;;20.47;11.83;;;5.30;99.90;;;;;;5034488;28;20414;-73
2021/12/12 07:07:47;;;;;;;21.75;11.15;;;5.40;99.90;;;;;;5017247;28;20481;-73
2021/12/12 07:10:15;;;;;;;19.77;11.13;;;5.40;99.90;;;;;;5039608;28;20425;-73
2021/12/12 07:12:42;;;;;;;25.45;12.25;;;5.30;99.90;;;;;;5034604;28;20398;-75
2021/12/12 07:15:13;;;;;;;21.08;12.30;;;5.30;99.90;;;;;;5039497;28;20885;-73
2021/12/12 07:17:39;;;;;;;24.80;11.98;;;5.30;99.90;;;;;;5032545;28;20387;-73
2021/12/12 07:20:09;;;;;;;24.25;13.20;;;5.20;99.90;;;;;;5008687;28;20901;-73
2021/12/12 07:22:36;;;;;;;25.27;12.75;;;5.20;99.90;;;;;;5013747;28;20392;-73
2021/12/12 07:25:04;;;;;;;24.90;12.80;;;5.30;99.90;;;;;;5032895;28;20485;-73
2021/12/12 07:27:30;;;;;;;27.60;14.25;;;5.20;99.90;;;;;;5032712;28;20436;-74
2021/12/12 07:29:56;;;;;;;25.47;13.90;;;5.20;99.90;;;;;;5035564;28;20458;-74
2021/12/12 07:32:22;;;;;;;23.27;13.30;;;5.20;99.90;;;;;;5034687;28;20395;-73
2021/12/12 07:34:48;;;;;;;29.85;13.80;;;5.20;99.90;;;;;;5033239;28;20393;-73
2021/12/12 07:37:14;;;;;;;30.08;14.25;;;5.20;99.90;;;;;;5022236;28;20434;-73
2021/12/12 07:39:42;;;;;;;29.85;14.38;;;5.20;99.90;;;;;;5030140;28;20744;-73
2021/12/12 07:42:08;;;;;;;21.55;12.93;;;5.20;99.90;;;;;;5012249;28;20389;-74
2021/12/12 07:44:37;;;;;;;23.25;13.35;;;5.20;99.90;;;;;;5012156;28;20392;-73
2021/12/12 07:47:05;;;;;;;27.10;13.15;;;5.30;99.90;;;;;;5023434;28;20476;-74
2021/12/12 07:49:35;;;;;;;26.80;14.57;;;5.30;99.90;;;;;;5028126;28;20875;-74
2021/12/12 07:52:04;;;;;;;23.58;13.90;;;5.20;99.90;;;;;;5032926;28;20868;-74
2021/12/12 07:54:32;;;;;;;27.60;14.10;;;5.40;99.90;;;;;;5013852;28;20393;-74
2021/12/12 07:56:58;;;;;;;26.23;14.05;;;5.50;99.90;;;;;;5016610;28;20394;-74
2021/12/12 07:59:24;;;;;;;25.02;13.80;;;5.50;99.90;;;;;;5031466;28;20491;-73
2021/12/12 08:01:52;;;;;;;30.70;14.67;;;5.60;99.90;;;;;;5031604;28;20455;-76
2021/12/12 08:04:22;;;;;;;29.27;14.10;;;5.50;99.90;;;;;;5023551;28;20412;-73
2021/12/12 08:06:49;;;;;;;27.50;13.77;;;5.50;99.90;;;;;;5013410;28;20421;-75
2021/12/12 08:09:15;;;;;;;25.45;14.05;;;5.60;99.90;;;;;;5013289;28;20423;-74
2021/12/12 08:11:42;;;;;;;24.98;14.55;;;5.60;99.90;;;;;;5031140;28;20391;-74
2021/12/12 08:14:15;;;;;;;28.13;13.63;;;5.50;99.90;;;;;;5030978;28;20391;-75
2021/12/12 08:16:41;;;;;;;28.65;13.88;;;5.60;99.90;;;;;;5028128;28;20402;-73
2021/12/12 08:19:07;;;;;;;25.33;14.80;;;5.60;99.90;;;;;;5039526;28;20412;-74
2021/12/12 08:21:34;;;;;;;22.90;13.33;;;5.60;99.90;;;;;;5051407;28;20386;-74
2021/12/12 08:24:09;;;;;;;26.67;13.10;;;5.60;99.90;;;;;;5038429;28;20433;-75
2021/12/12 08:26:38;;;;;;;22.25;13.38;;;5.70;99.90;;;;;;5031138;28;20460;-74
2021/12/12 08:29:06;;;;;;;23.42;13.43;;;5.60;99.90;;;;;;5030762;28;20490;-75
2021/12/12 08:31:32;;;;;;;26.00;14.02;;;5.70;99.90;;;;;;5012461;28;20844;-75
2021/12/12 08:33:57;;;;;;;24.80;13.70;;;5.70;99.90;;;;;;5027006;28;20472;-73
2021/12/12 08:36:23;;;;;;;19.60;12.85;;;5.80;99.90;;;;;;5051147;28;20381;-72
2021/12/12 08:38:50;;;;;;;21.83;14.03;;;5.80;99.90;;;;;;5047484;28;20410;-71
2021/12/12 08:41:16;;;;;;;24.08;14.93;;;5.80;99.90;;;;;;5022059;28;20919;-75
2021/12/12 08:43:43;;;;;;;26.23;13.93;;;5.70;99.90;;;;;;5022234;28;20537;-72
2021/12/12 08:46:12;;;;;;;22.63;15.13;;;5.80;99.90;;;;;;5028452;28;20456;-73
2021/12/12 08:48:48;;;;;;;29.50;15.00;;;5.90;99.90;;;;;;5023783;28;20753;-72
2021/12/12 08:51:29;;;;;;;24.93;15.10;;;6.10;99.90;;;;;;5017136;28;20407;-73
2021/12/12 08:53:57;;;;;;;30.83;15.37;;;6.00;99.90;;;;;;5019098;28;20476;-73
2021/12/12 08:56:42;;;;;;;24.08;15.15;;;6.00;99.90;;;;;;5030747;28;20475;-73
2021/12/12 08:59:11;;;;;;;25.25;14.70;;;6.10;99.90;;;;;;5024464;28;20395;-73
2021/12/12 09:01:39;;;;;;;25.88;15.95;;;5.90;99.90;;;;;;5035469;28;20562;-74
2021/12/12 09:04:06;;;;;;;30.55;16.15;;;5.90;99.90;;;;;;5018444;28;20402;-73
2021/12/12 09:06:37;;;;;;;26.95;15.15;;;5.90;99.90;;;;;;5014679;28;20438;-77
2021/12/12 09:09:05;;;;;;;26.33;14.97;;;6.10;99.90;;;;;;5026495;28;20397;-74
2021/12/12 09:11:40;;;;;;;24.15;14.93;;;6.10;99.90;;;;;;5005443;28;20415;-76
2021/12/12 09:14:20;;;;;;;25.15;14.57;;;6.10;99.90;;;;;;5027677;28;20383;-76
2021/12/12 09:16:48;;;;;;;24.90;13.60;;;6.00;99.90;;;;;;5028609;28;20388;-75
2021/12/12 09:19:21;;;;;;;26.85;14.43;;;6.10;99.90;;;;;;5025361;28;20532;-74
2021/12/12 09:21:57;;;;;;;22.77;13.82;;;6.10;99.90;;;;;;5024551;28;20401;-74
2021/12/12 09:24:53;;;;;;;23.75;14.00;;;6.00;99.90;;;;;;5027233;28;20415;-75
2021/12/12 09:27:27;;;;;;;25.25;13.10;;;6.10;99.90;;;;;;5033431;28;20402;-76
2021/12/12 09:30:05;;;;;;;19.98;11.57;;;6.20;99.90;;;;;;5029245;28;20774;-75
2021/12/12 09:32:39;;;;;;;22.40;11.05;;;6.30;99.90;;;;;;5031210;28;20402;-74
2021/12/12 09:35:04;;;;;;;22.90;10.93;;;6.20;99.90;;;;;;5034918;28;20383;-73
2021/12/12 09:37:38;;;;;;;21.40;11.35;;;6.40;99.90;;;;;;5032791;28;20403;-75
2021/12/12 09:40:15;;;;;;;17.27;10.90;;;6.30;99.90;;;;;;5028400;28;20485;-74
2021/12/12 09:43:33;;;;;;;19.43;11.50;;;6.30;99.90;;;;;;5033859;28;20387;-74
2021/12/12 09:46:04;;;;;;;19.95;11.07;;;6.30;99.90;;;;;;5016018;28;20395;-75
2021/12/12 09:51:33;;;;;;;18.30;11.33;;;6.30;99.90;;;;;;5025214;28;20835;-73
2021/12/12 09:54:21;;;;;;;22.73;11.38;;;6.20;99.90;;;;;;5031601;28;20398;-74
2021/12/12 09:56:52;;;;;;;21.45;11.27;;;6.30;99.90;;;;;;5022485;28;20490;-75
2021/12/12 09:59:46;;;;;;;18.55;10.23;;;6.30;99.90;;;;;;5033299;28;20395;-73
2021/12/12 10:02:20;;;;;;;19.50;9.65;;;6.40;99.90;;;;;;5024782;28;20938;-73
2021/12/12 10:05:05;;;;;;;16.98;11.00;;;6.30;99.90;;;;;;5032708;28;20440;-75
2021/12/12 10:08:14;;;;;;;18.08;9.55;;;6.30;99.90;;;;;;5012020;28;20393;-73
2021/12/12 10:11:01;;;;;;;18.70;9.45;;;6.40;99.90;;;;;;5031182;28;20465;-73
2021/12/12 10:13:41;;;;;;;21.83;10.13;;;6.60;99.90;;;;;;5033214;28;20424;-73
2021/12/12 10:16:16;;;;;;;16.60;9.70;;;6.60;99.90;;;;;;5013941;28;20391;-73
2021/12/12 10:18:55;;;;;;;18.40;9.80;;;6.70;99.90;;;;;;5031225;28;20390;-74
2021/12/12 10:21:40;;;;;;;17.08;9.65;;;6.60;99.90;;;;;;5036750;28;20398;-73
2021/12/12 10:24:30;;;;;;;18.10;9.70;;;6.60;99.90;;;;;;5049888;28;20408;-73
2021/12/12 10:27:17;;;;;;;19.43;10.30;;;6.60;99.90;;;;;;5040851;28;20399;-72
2021/12/12 10:30:05;;;;;;;20.17;9.98;;;6.60;99.90;;;;;;5012776;28;20422;-75
2021/12/12 10:32:36;;;;;;;22.13;9.77;;;6.70;99.90;;;;;;5031047;28;20594;-75
2021/12/12 10:35:13;;;;;;;16.58;9.90;;;6.70;99.90;;;;;;5033097;28;20386;-75
2021/12/12 10:37:48;;;;;;;14.68;8.90;;;6.80;99.90;;;;;;5032461;28;20402;-77
2021/12/12 10:40:21;;;;;;;19.98;9.77;;;7.00;99.90;;;;;;5033197;28;20397;-75
2021/12/12 10:42:50;;;;;;;15.50;9.80;;;6.80;99.90;;;;;;5032898;28;20403;-75
2021/12/12 10:45:22;;;;;;;19.02;10.45;;;6.80;99.90;;;;;;5003974;28;20398;-75
2021/12/12 10:48:08;;;;;;;19.00;10.15;;;6.70;99.90;;;;;;5023536;28;20398;-73
2021/12/12 10:50:42;;;;;;;18.88;9.32;;;6.70;99.90;;;;;;5033632;28;20438;-76
2021/12/12 10:53:29;;;;;;;17.10;10.27;;;6.70;99.90;;;;;;5026034;28;20780;-74
2021/12/12 10:56:07;;;;;;;21.73;10.37;;;6.70;99.90;;;;;;5024192;28;20468;-76
2021/12/12 10:58:52;;;;;;;20.33;10.38;;;6.70;99.90;;;;;;5012195;28;20448;-75
2021/12/12 11:01:32;;;;;;;22.15;10.35;;;6.80;99.90;;;;;;5043734;28;21429;-75
2021/12/12 11:04:09;;;;;;;16.92;10.73;;;6.80;99.90;;;;;;5035225;28;20872;-74
2021/12/12 11:07:06;;;;;;;19.63;11.10;;;6.70;99.90;;;;;;5032444;28;20494;-74
2021/12/12 11:09:44;;;;;;;16.75;10.65;;;6.60;99.90;;;;;;5011221;28;20982;-76
2021/12/12 11:12:22;;;;;;;25.05;10.48;;;6.80;99.90;;;;;;5031926;28;20417;-74
2021/12/12 11:15:02;;;;;;;19.13;10.70;;;7.00;99.90;;;;;;5034872;28;20401;-73
2021/12/12 11:17:44;;;;;;;18.92;10.55;;;6.80;99.90;;;;;;5036388;28;20941;-75
2021/12/12 11:20:19;;;;;;;19.73;10.13;;;7.00;99.90;;;;;;5029202;28;20396;-74
2021/12/12 11:22:56;;;;;;;21.33;10.23;;;6.90;99.90;;;;;;5025600;28;20481;-75
2021/12/12 11:25:27;;;;;;;23.70;10.75;;;6.90;99.90;;;;;;5039277;28;20424;-73
2021/12/12 11:27:59;;;;;;;21.05;11.00;;;7.10;99.90;;;;;;5033544;28;20451;-75
2021/12/12 11:30:34;;;;;;;16.13;9.65;;;7.00;99.90;;;;;;5032194;28;20768;-73
2021/12/12 11:33:02;;;;;;;16.67;11.00;;;7.00;99.90;;;;;;5031639;28;20409;-74
2021/12/12 11:35:29;;;;;;;13.77;10.50;;;6.80;99.90;;;;;;5037225;28;20634;-75
2021/12/12 11:38:21;;;;;;;19.92;11.20;;;7.00;99.90;;;;;;5033584;28;20672;-79
2021/12/12 11:40:55;;;;;;;17.15;10.70;;;7.00;99.90;;;;;;5029145;28;20490;-76
2021/12/12 11:43:35;;;;;;;18.90;10.57;;;7.00;99.90;;;;;;5040942;28;20484;-75
2021/12/12 11:46:04;;;;;;;14.25;10.25;;;7.10;99.90;;;;;;5026237;28;20419;-74
2021/12/12 11:48:46;;;;;;;17.40;10.38;;;7.10;99.90;;;;;;5022638;28;20919;-75
2021/12/12 11:51:28;;;;;;;13.73;10.18;;;7.10;99.90;;;;;;5031229;28;20515;-75
2021/12/12 11:54:23;;;;;;;15.82;10.10;;;7.10;99.90;;;;;;5031462;28;20467;-76
2021/12/12 11:56:58;;;;;;;14.43;9.70;;;7.00;99.90;;;;;;5013867;28;20943;-75
2021/12/12 12:00:02;;;;;;;16.00;10.20;;;7.20;99.90;;;;;;5031291;28;20475;-76
2021/12/12 12:02:37;;;;;;;16.52;9.75;;;7.20;99.90;;;;;;5020422;28;20498;-73
2021/12/12 12:05:13;;;;;;;19.67;11.15;;;7.00;99.90;;;;;;5027205;28;20406;-73
2021/12/12 12:07:44;;;;;;;17.35;11.30;;;7.00;99.90;;;;;;5023580;28;20796;-74
2021/12/12 12:10:41;;;;;;;20.77;12.17;;;7.00;99.90;;;;;;5033294;28;20458;-74
2021/12/12 12:13:46;;;;;;;17.55;11.50;;;7.10;99.90;;;;;;5029188;28;20423;-73
2021/12/12 12:16:41;;;;;;;15.75;10.82;;;7.10;99.90;;;;;;5032447;28;20700;-73
2021/12/12 12:19:19;;;;;;;20.13;11.13;;;7.10;99.90;;;;;;5030303;28;20417;-72
2021/12/12 12:21:55;;;;;;;18.45;11.57;;;7.10;99.90;;;;;;5030623;28;20410;-73
2021/12/12 12:24:41;;;;;;;14.98;10.60;;;7.30;99.90;;;;;;5013764;28;20406;-73
2021/12/12 12:27:18;;;;;;;16.07;11.70;;;7.40;99.90;;;;;;5040635;28;20401;-74
2021/12/12 12:30:03;;;;;;;15.82;11.20;;;7.40;99.90;;;;;;5030391;28;20905;-73
2021/12/12 12:33:06;;;;;;;16.08;11.35;;;7.40;99.90;;;;;;5027821;28;20382;-73
2021/12/12 12:36:05;;;;;;;16.05;11.43;;;7.50;99.90;;;;;;5027714;28;20403;-73
2021/12/12 12:39:08;;;;;;;15.75;10.60;;;7.70;99.90;;;;;;5028303;28;20705;-73
2021/12/12 12:41:39;;;;;;;15.85;11.70;;;7.50;99.90;;;;;;5029450;28;20732;-74
2021/12/12 12:44:31;;;;;;;16.40;12.23;;;7.50;99.90;;;;;;5000062;28;20516;-72
2021/12/12 12:47:24;;;;;;;16.00;10.85;;;7.50;99.90;;;;;;5007264;28;20845;-72
2021/12/12 12:50:09;;;;;;;15.13;10.80;;;7.60;99.90;;;;;;5030350;28;20922;-72
2021/12/12 12:52:37;;;;;;;16.70;10.80;;;7.60;99.90;;;;;;5030470;28;20421;-72
2021/12/12 12:55:33;;;;;;;14.98;11.35;;;7.60;99.90;;;;;;5030712;28;20420;-72
2021/12/12 12:58:41;;;;;;;17.77;12.55;;;7.40;99.90;;;;;;5031437;28;20399;-76
2021/12/12 13:01:39;;;;;;;17.42;12.00;;;7.40;99.90;;;;;;5019447;28;20892;-73
2021/12/12 13:04:32;;;;;;;17.02;11.95;;;7.40;99.90;;;;;;5006116;28;20423;-74
2021/12/12 13:07:14;;;;;;;16.70;12.52;;;7.40;99.90;;;;;;5024152;28;20413;-71
2021/12/12 13:09:59;;;;;;;14.40;11.30;;;7.50;99.90;;;;;;5030250;28;20919;-71
2021/12/12 13:12:37;;;;;;;14.45;11.18;;;7.50;99.90;;;;;;5038096;28;20402;-74
2021/12/12 13:15:19;;;;;;;17.23;11.40;;;7.40;99.90;;;;;;5017239;28;20925;-74
2021/12/12 13:18:17;;;;;;;16.75;12.10;;;7.40;99.90;;;;;;5021713;28;20432;-74
2021/12/12 13:20:57;;;;;;;18.67;12.40;;;7.50;99.90;;;;;;5036789;28;20779;-75
2021/12/12 13:23:52;;;;;;;17.92;12.55;;;7.50;99.90;;;;;;5038697;28;20449;-75
2021/12/12 13:26:29;;;;;;;15.07;12.38;;;7.50;99.90;;;;;;5015439;28;20444;-75
2021/12/12 13:29:32;;;;;;;16.98;12.43;;;7.60;99.90;;;;;;5039327;28;20408;-75
2021/12/12 13:32:09;;;;;;;17.40;12.35;;;7.50;99.90;;;;;;5018954;28;20754;-74
2021/12/12 13:34:53;;;;;;;20.90;12.80;;;7.50;99.90;;;;;;5026220;28;20410;-73
2021/12/12 13:37:46;;;;;;;15.70;11.43;;;7.70;99.90;;;;;;5022910;28;20400;-75